createdAt,value
2022-10-24T00:01:57.313Z,3.87
2022-10-24T00:04:26.015Z,3.55
2022-10-24T00:06:54.710Z,4.15
2022-10-24T00:09:24.742Z,4.77
2022-10-24T00:11:53.331Z,4.15
2022-10-24T00:14:22.097Z,3.88
2022-10-24T00:16:50.793Z,3.55
2022-10-24T00:19:19.435Z,4.30
2022-10-24T00:21:48.378Z,4.97
2022-10-24T00:24:17.434Z,4.75
2022-10-24T00:26:47.539Z,4.40
2022-10-24T00:29:16.223Z,4.70
2022-10-24T00:31:44.844Z,6.47
2022-10-24T00:34:13.571Z,6.15
2022-10-24T00:36:42.206Z,7.17
2022-10-24T00:39:12.457Z,6.17
2022-10-24T00:41:44.419Z,6.47
2022-10-24T00:44:23.886Z,8.45
2022-10-24T00:49:25.085Z,7.80
2022-10-24T00:51:58.339Z,6.20
2022-10-24T00:54:27.178Z,6.63
2022-10-24T00:57:03.921Z,6.70
2022-10-24T00:59:36.103Z,6.60
2022-10-24T01:02:05.179Z,6.50
2022-10-24T01:04:33.798Z,5.70
2022-10-24T01:07:16.110Z,5.23
2022-10-24T01:10:08.404Z,5.80
2022-10-24T01:12:47.775Z,5.22
2022-10-24T01:15:23.617Z,5.38
2022-10-24T01:18:01.097Z,5.40
2022-10-24T01:20:53.598Z,5.95
2022-10-24T01:23:50.666Z,5.40
2022-10-24T01:26:42.821Z,5.53
2022-10-24T01:29:19.677Z,5.82
2022-10-24T01:31:55.570Z,5.45
2022-10-24T01:34:31.632Z,5.88
2022-10-24T01:37:06.169Z,5.78
2022-10-24T01:39:41.710Z,5.47
2022-10-24T01:42:14.324Z,5.88
2022-10-24T01:44:46.896Z,5.25
2022-10-24T01:47:20.867Z,5.00
2022-10-24T01:49:54.050Z,5.00
2022-10-24T01:52:24.336Z,5.43
2022-10-24T01:54:53.103Z,5.63
2022-10-24T01:57:21.800Z,4.73
2022-10-24T01:59:50.723Z,5.47
2022-10-24T02:02:26.121Z,4.93
2022-10-24T02:04:58.934Z,5.28
2022-10-24T02:07:30.205Z,4.97
2022-10-24T02:10:03.504Z,5.38
2022-10-24T02:12:34.275Z,5.20
2022-10-24T02:15:08.206Z,5.68
2022-10-24T02:17:38.389Z,5.10
2022-10-24T02:20:09.702Z,6.28
2022-10-24T02:22:47.213Z,5.30
2022-10-24T02:25:22.925Z,5.53
2022-10-24T02:27:54.819Z,5.88
2022-10-24T02:30:25.876Z,5.82
2022-10-24T02:32:58.986Z,5.97
2022-10-24T02:35:30.342Z,6.00
2022-10-24T02:38:02.927Z,5.75
2022-10-24T02:40:32.953Z,6.57
2022-10-24T02:43:03.485Z,6.07
2022-10-24T02:45:33.351Z,5.22
2022-10-24T02:48:06.501Z,5.88
2022-10-24T02:50:36.240Z,5.45
2022-10-24T02:53:05.545Z,4.85
2022-10-24T02:55:34.252Z,5.25
2022-10-24T02:58:02.883Z,4.90
2022-10-24T03:00:31.594Z,4.57
2022-10-24T03:03:00.311Z,5.22
2022-10-24T03:05:30.332Z,4.78
2022-10-24T03:07:58.995Z,5.30
2022-10-24T03:10:27.660Z,5.43
2022-10-24T03:12:56.397Z,5.73
2022-10-24T03:15:25.144Z,5.80
2022-10-24T03:17:53.695Z,5.30
2022-10-24T03:20:22.487Z,5.55
2022-10-24T03:22:52.530Z,5.53
2022-10-24T03:25:21.204Z,5.80
2022-10-24T03:27:49.937Z,10.93
2022-10-24T03:30:18.600Z,8.18
2022-10-24T03:32:47.614Z,9.20
2022-10-24T03:35:16.798Z,9.20
2022-10-24T03:37:45.484Z,10.07
2022-10-24T03:40:15.734Z,11.00
2022-10-24T03:42:44.651Z,11.15
2022-10-24T03:45:13.398Z,9.10
2022-10-24T03:47:42.125Z,7.47
2022-10-24T03:50:11.073Z,6.30
2022-10-24T03:52:40.163Z,6.60
2022-10-24T03:55:09.482Z,6.38
2022-10-24T03:57:39.803Z,6.18
2022-10-24T04:00:09.973Z,6.40
2022-10-24T04:02:40.278Z,6.15
2022-10-24T04:05:11.756Z,5.68
2022-10-24T04:07:40.538Z,5.80
2022-10-24T04:10:09.889Z,6.03
2022-10-24T04:12:39.880Z,6.60
2022-10-24T04:15:09.367Z,5.53
2022-10-24T04:17:37.942Z,5.82
2022-10-24T04:20:07.464Z,5.43
2022-10-24T04:22:36.194Z,5.07
2022-10-24T04:25:05.082Z,5.78
2022-10-24T04:27:34.556Z,5.45
2022-10-24T04:30:04.592Z,5.55
2022-10-24T04:32:33.209Z,5.70
2022-10-24T04:35:03.248Z,7.57
2022-10-24T04:37:31.993Z,6.90
2022-10-24T04:40:00.690Z,7.07
2022-10-24T04:42:29.210Z,6.85
2022-10-24T04:44:57.842Z,6.55
2022-10-24T04:47:28.524Z,7.95
2022-10-24T04:49:57.197Z,7.95
2022-10-24T04:52:25.738Z,7.88
2022-10-24T04:54:54.401Z,7.30
2022-10-24T04:57:23.788Z,7.63
2022-10-24T04:59:52.448Z,6.75
2022-10-24T05:02:21.122Z,6.80
2022-10-24T05:04:51.198Z,8.68
2022-10-24T05:07:21.783Z,8.02
2022-10-24T05:09:50.418Z,7.43
2022-10-24T05:14:52.500Z,8.07
2022-10-24T05:17:21.116Z,9.48
2022-10-24T05:19:51.133Z,12.77
2022-10-24T05:22:19.883Z,16.67
2022-10-24T05:24:48.465Z,14.70
2022-10-24T05:27:17.182Z,15.65
2022-10-24T05:29:45.774Z,13.47
2022-10-24T05:32:14.506Z,12.90
2022-10-24T05:34:43.061Z,13.07
2022-10-24T05:37:13.277Z,11.53
2022-10-24T05:39:42.015Z,11.63
2022-10-24T05:42:11.274Z,11.43
2022-10-24T05:44:40.184Z,10.52
2022-10-24T05:47:08.749Z,8.30
2022-10-24T05:49:37.769Z,6.83
2022-10-24T05:52:06.930Z,6.10
2022-10-24T05:54:48.561Z,6.53
2022-10-24T05:57:25.931Z,6.35
2022-10-24T05:59:54.406Z,6.60
2022-10-24T06:02:23.244Z,6.40
2022-10-24T06:04:51.976Z,6.82
2022-10-24T06:07:20.838Z,8.13
2022-10-24T06:09:50.779Z,7.20
2022-10-24T06:12:19.689Z,7.15
2022-10-24T06:14:48.234Z,7.93
2022-10-24T06:17:16.963Z,6.65
2022-10-24T06:19:46.336Z,5.60
2022-10-24T06:22:14.969Z,5.90
2022-10-24T06:24:43.487Z,5.28
2022-10-24T06:27:13.513Z,5.55
2022-10-24T06:29:42.130Z,5.63
2022-10-24T06:32:10.681Z,6.03
2022-10-24T06:34:39.382Z,5.87
2022-10-24T06:37:07.896Z,6.40
2022-10-24T06:39:36.435Z,7.60
2022-10-24T06:42:05.120Z,7.50
2022-10-24T06:44:35.118Z,7.00
2022-10-24T06:47:03.712Z,6.95
2022-10-24T06:49:32.309Z,7.20
2022-10-24T06:52:00.951Z,6.40
2022-10-24T06:54:30.580Z,7.13
2022-10-24T06:56:59.396Z,7.95
2022-10-24T06:59:28.341Z,8.23
2022-10-24T07:02:01.852Z,10.70
2022-10-24T07:04:34.378Z,11.40
2022-10-24T07:07:03.060Z,11.40
2022-10-24T07:09:31.611Z,11.60
2022-10-24T07:12:00.530Z,7.93
2022-10-24T07:14:29.192Z,6.93
2022-10-24T07:16:59.609Z,6.78
2022-10-24T07:19:28.471Z,7.35
2022-10-24T07:21:56.997Z,6.93
2022-10-24T07:24:25.573Z,6.10
2022-10-24T07:26:54.261Z,6.65
2022-10-24T07:29:23.529Z,6.68
2022-10-24T07:31:52.422Z,6.43
2022-10-24T07:34:22.490Z,6.32
2022-10-24T07:36:51.090Z,6.70
2022-10-24T07:39:19.999Z,5.72
2022-10-24T07:41:48.551Z,7.30
2022-10-24T07:44:17.215Z,8.73
2022-10-24T07:46:45.754Z,7.15
2022-10-24T07:49:14.380Z,7.13
2022-10-24T07:51:44.713Z,8.60
2022-10-24T07:54:13.262Z,7.43
2022-10-24T07:56:41.882Z,7.40
2022-10-24T07:59:29.965Z,6.87
2022-10-24T08:01:59.044Z,6.47
2022-10-24T08:04:29.226Z,5.95
2022-10-24T08:07:00.539Z,6.63
2022-10-24T08:09:29.115Z,6.72
2022-10-24T08:11:57.731Z,6.78
2022-10-24T08:14:26.508Z,6.60
2022-10-24T08:16:55.092Z,6.18
2022-10-24T08:21:59.148Z,6.78
2022-10-24T08:24:27.914Z,7.57
2022-10-24T08:26:57.052Z,7.60
2022-10-24T08:29:25.733Z,6.95
2022-10-24T08:31:55.725Z,7.03
2022-10-24T08:34:24.864Z,7.30
2022-10-24T08:36:53.557Z,7.70
2022-10-24T08:39:23.502Z,6.33
2022-10-24T08:41:59.292Z,7.03
2022-10-24T08:44:31.775Z,7.20
2022-10-24T08:47:04.695Z,6.65
2022-10-24T08:49:39.722Z,6.72
2022-10-24T08:52:17.984Z,6.20
2022-10-24T08:54:49.026Z,6.43
2022-10-24T08:57:24.062Z,6.47
2022-10-24T08:59:58.244Z,6.18
2022-10-24T09:02:29.063Z,6.40
2022-10-24T09:05:00.949Z,6.18
2022-10-24T09:07:30.152Z,6.32
2022-10-24T09:10:07.944Z,6.55
2022-10-24T09:12:37.379Z,6.70
2022-10-24T09:15:16.650Z,7.35
2022-10-24T09:17:46.623Z,6.70
2022-10-24T09:20:25.806Z,6.63
2022-10-24T09:22:56.340Z,6.43
2022-10-24T09:25:30.940Z,6.50
2022-10-24T09:28:02.080Z,7.05
2022-10-24T09:30:33.535Z,6.60
2022-10-24T09:33:13.971Z,6.65
2022-10-24T09:35:45.316Z,6.53
2022-10-24T09:38:33.760Z,5.55
2022-10-24T09:41:06.918Z,5.43
2022-10-24T09:43:41.062Z,4.88
2022-10-24T09:46:12.496Z,4.32
2022-10-24T09:48:49.784Z,4.63
2022-10-24T09:51:30.016Z,4.15
2022-10-24T09:54:06.655Z,4.55
2022-10-24T09:56:41.610Z,4.40
2022-10-24T09:59:35.939Z,4.20
2022-10-24T10:02:26.644Z,4.32
2022-10-24T10:05:14.835Z,3.42
2022-10-24T10:07:48.692Z,4.65
2022-10-24T10:10:38.954Z,4.05
2022-10-24T10:13:23.032Z,5.18
2022-10-24T10:15:54.577Z,5.30
2022-10-24T10:18:26.338Z,5.43
2022-10-24T10:21:09.008Z,5.30
2022-10-24T10:23:41.041Z,5.05
2022-10-24T10:26:19.494Z,4.75
2022-10-24T10:28:58.232Z,5.72
2022-10-24T10:31:34.990Z,5.10
2022-10-24T10:34:21.644Z,5.22
2022-10-24T10:36:59.940Z,4.43
2022-10-24T10:39:48.987Z,43.85
2022-10-24T10:42:22.086Z,103.18
2022-10-24T10:45:06.794Z,23.80
2022-10-24T10:47:47.335Z,15.88
2022-10-24T10:50:30.010Z,21.10
2022-10-24T10:53:09.577Z,140.70
2022-10-24T10:58:25.148Z,388.50
2022-10-24T11:01:02.160Z,429.58
2022-10-24T11:03:44.216Z,364.27
2022-10-24T11:06:31.227Z,192.73
2022-10-24T11:09:19.997Z,135.35
2022-10-24T11:11:54.777Z,120.85
2022-10-24T11:14:31.156Z,22.75
2022-10-24T11:17:12.304Z,63.58
2022-10-24T11:20:01.068Z,162.45
2022-10-24T11:22:35.636Z,90.47
2022-10-24T11:25:10.218Z,62.63
2022-10-24T11:27:44.064Z,101.80
2022-10-24T11:30:16.882Z,238.85
2022-10-24T11:32:51.459Z,999.90
2022-10-24T11:35:25.668Z,999.90
2022-10-24T11:38:00.980Z,617.08
2022-10-24T11:40:31.734Z,421.58
2022-10-24T11:43:12.030Z,103.20
2022-10-24T11:45:48.832Z,372.35
2022-10-24T11:48:25.449Z,381.75
2022-10-24T11:50:57.263Z,324.20
2022-10-24T11:53:45.979Z,441.73
2022-10-24T11:56:23.490Z,295.63
2022-10-24T11:58:58.783Z,736.45
2022-10-24T12:01:54.527Z,538.92
2022-10-24T12:04:43.186Z,489.27
2022-10-24T12:07:51.671Z,277.43
2022-10-24T12:10:35.827Z,260.40
2022-10-24T12:13:34.946Z,138.45
2022-10-24T12:16:10.843Z,360.60
2022-10-24T12:18:42.939Z,437.25
2022-10-24T12:21:20.066Z,229.55
2022-10-24T12:23:56.494Z,231.25
2022-10-24T12:26:29.152Z,459.77
2022-10-24T12:28:59.420Z,519.30
2022-10-24T12:31:30.504Z,680.20
2022-10-24T12:34:48.757Z,651.63
2022-10-24T12:37:36.716Z,524.30
2022-10-24T12:40:42.479Z,620.97
2022-10-24T12:43:18.140Z,583.42
2022-10-24T12:45:46.806Z,269.15
2022-10-24T12:48:33.086Z,336.73
2022-10-24T12:51:21.049Z,522.70
2022-10-24T12:54:05.837Z,641.08
2022-10-24T12:56:35.657Z,636.28
2022-10-24T12:59:18.228Z,548.63
2022-10-24T13:01:48.166Z,586.78
2022-10-24T13:04:46.897Z,446.10
2022-10-24T13:07:48.455Z,418.10
2022-10-24T13:10:43.946Z,324.38
2022-10-24T13:13:35.054Z,323.15
2022-10-24T13:16:15.801Z,258.33
2022-10-24T13:18:54.738Z,162.43
2022-10-24T13:21:29.286Z,137.82
2022-10-24T13:24:13.603Z,163.88
2022-10-24T13:26:45.720Z,168.02
2022-10-24T13:29:16.693Z,244.80
2022-10-24T13:31:51.745Z,231.18
2022-10-24T13:34:43.032Z,366.50
2022-10-24T13:37:18.649Z,281.35
2022-10-24T13:39:50.548Z,313.10
2022-10-24T13:42:28.659Z,358.15
2022-10-24T13:45:01.544Z,243.75
2022-10-24T13:47:36.323Z,176.48
2022-10-24T13:50:13.124Z,127.25
2022-10-24T13:52:49.456Z,88.13
2022-10-24T13:55:26.006Z,95.10
2022-10-24T13:58:02.502Z,91.97
2022-10-24T14:00:34.230Z,72.82
2022-10-24T14:03:06.016Z,60.85
2022-10-24T14:05:39.025Z,55.85
2022-10-24T14:08:09.757Z,56.72
2022-10-24T14:10:39.558Z,55.88
2022-10-24T14:13:16.040Z,92.68
2022-10-24T14:15:49.991Z,145.55
2022-10-24T14:18:18.830Z,181.95
2022-10-24T14:20:53.533Z,340.20
2022-10-24T14:23:28.306Z,476.27
2022-10-24T14:26:00.499Z,504.88
2022-10-24T14:28:32.882Z,410.73
2022-10-24T14:31:03.588Z,525.17
2022-10-24T14:33:33.771Z,492.70
2022-10-24T14:36:04.977Z,280.10
2022-10-24T14:38:35.466Z,241.25
2022-10-24T14:41:09.599Z,304.30
2022-10-24T14:43:42.885Z,305.55
2022-10-24T14:46:30.482Z,314.70
2022-10-24T14:49:20.327Z,378.50
2022-10-24T14:51:50.854Z,267.40
2022-10-24T14:54:22.157Z,268.70
2022-10-24T14:56:52.255Z,183.80
2022-10-24T14:59:26.605Z,199.40
2022-10-24T15:01:57.750Z,243.10
2022-10-24T15:04:31.915Z,211.50
2022-10-24T15:07:15.014Z,315.05
2022-10-24T15:09:54.780Z,270.13
2022-10-24T15:12:32.208Z,235.48
2022-10-24T15:15:23.213Z,219.98
2022-10-24T15:17:53.050Z,226.27
2022-10-24T15:22:55.609Z,332.25
2022-10-24T15:25:28.876Z,320.27
2022-10-24T15:28:00.652Z,380.33
2022-10-24T15:30:32.571Z,418.40
2022-10-24T15:33:02.753Z,357.27
2022-10-24T15:35:35.209Z,238.27
2022-10-24T15:38:12.577Z,283.98
2022-10-24T15:40:43.935Z,224.07
2022-10-24T15:43:13.541Z,134.15
2022-10-24T15:48:12.228Z,101.22
2022-10-24T15:50:45.802Z,156.65
2022-10-24T15:53:18.870Z,131.25
2022-10-24T15:55:48.009Z,126.70
2022-10-24T15:58:18.334Z,193.23
2022-10-24T16:00:48.489Z,210.15
2022-10-24T16:03:22.679Z,198.85
2022-10-24T16:05:53.817Z,184.70
2022-10-24T16:08:23.597Z,154.13
2022-10-24T16:10:53.806Z,153.80
2022-10-24T16:13:23.571Z,136.57
2022-10-24T16:15:54.026Z,91.18
2022-10-24T16:18:22.634Z,147.32
2022-10-24T16:20:51.127Z,133.88
2022-10-24T16:23:19.739Z,112.97
2022-10-24T16:25:48.375Z,75.63
2022-10-24T16:28:22.785Z,48.50
2022-10-24T16:30:54.438Z,42.20
2022-10-24T16:33:23.142Z,36.55
2022-10-24T16:35:52.280Z,35.07
2022-10-24T16:38:20.925Z,35.15
2022-10-24T16:40:49.714Z,37.73
2022-10-24T16:43:20.075Z,29.33
2022-10-24T16:46:00.083Z,37.95
2022-10-24T16:48:29.021Z,40.42
2022-10-24T16:50:57.954Z,59.75
2022-10-24T16:53:26.708Z,40.58
2022-10-24T16:55:56.660Z,37.23
2022-10-24T16:58:25.402Z,235.13
2022-10-24T17:01:04.787Z,348.63
2022-10-24T17:06:02.544Z,373.37
2022-10-24T17:08:31.454Z,286.65
2022-10-24T17:11:00.965Z,363.15
2022-10-24T17:15:58.154Z,406.95
2022-10-24T17:18:28.282Z,350.85
2022-10-24T17:21:00.354Z,441.23
2022-10-24T17:23:29.488Z,376.95
2022-10-24T17:25:59.302Z,293.65
2022-10-24T17:28:33.082Z,243.40
2022-10-24T17:31:02.314Z,326.05
2022-10-24T17:33:36.202Z,286.75
2022-10-24T17:36:07.770Z,294.50
2022-10-24T17:38:43.495Z,404.33
2022-10-24T17:41:22.516Z,431.92
2022-10-24T17:43:51.582Z,370.75
2022-10-24T17:46:20.816Z,468.25
2022-10-24T17:48:51.242Z,445.95
2022-10-24T17:51:23.210Z,423.38
2022-10-24T17:53:51.969Z,370.33
2022-10-24T17:56:23.232Z,363.73
2022-10-24T17:58:54.335Z,412.42
2022-10-24T18:01:23.098Z,466.77
2022-10-24T18:03:53.257Z,201.77
2022-10-24T18:06:21.823Z,235.65
2022-10-24T18:08:54.502Z,179.63
2022-10-24T18:11:23.565Z,178.23
2022-10-24T18:13:52.263Z,462.75
2022-10-24T18:16:22.059Z,591.73
2022-10-24T18:18:52.761Z,498.33
2022-10-24T18:21:24.840Z,443.88
2022-10-24T18:23:55.990Z,314.77
2022-10-24T18:26:26.517Z,339.05
2022-10-24T18:28:58.192Z,388.90
2022-10-24T18:31:29.021Z,221.73
2022-10-24T18:34:06.066Z,201.43
2022-10-24T18:36:37.643Z,151.10
2022-10-24T18:39:07.138Z,77.63
2022-10-24T18:41:46.603Z,104.68
2022-10-24T18:44:27.786Z,100.32
2022-10-24T18:47:02.149Z,55.05
2022-10-24T18:49:34.729Z,65.45
2022-10-24T18:52:14.836Z,63.05
2022-10-24T18:55:02.335Z,61.80
2022-10-24T18:57:34.660Z,55.30
2022-10-24T19:00:03.765Z,48.90
2022-10-24T19:02:37.144Z,78.30
2022-10-24T19:05:16.639Z,48.50
2022-10-24T19:10:20.750Z,89.75
2022-10-24T19:12:49.725Z,95.40
2022-10-24T19:15:19.080Z,66.43
2022-10-24T19:17:48.897Z,59.33
2022-10-24T19:20:21.486Z,52.20
2022-10-24T19:22:50.415Z,63.40
2022-10-24T19:25:19.471Z,53.95
2022-10-24T19:27:49.458Z,44.50
2022-10-24T19:30:18.232Z,41.00
2022-10-24T19:32:48.070Z,36.03
2022-10-24T19:35:18.902Z,34.83
2022-10-24T19:37:47.839Z,17.92
2022-10-24T19:40:16.876Z,41.15
2022-10-24T19:42:45.507Z,33.50
2022-10-24T19:45:14.478Z,23.43
2022-10-24T19:47:43.169Z,24.20
2022-10-24T19:50:12.791Z,45.50
2022-10-24T19:55:11.111Z,38.83
2022-10-24T19:57:39.948Z,47.63
2022-10-24T20:00:09.959Z,54.08
2022-10-24T20:02:42.028Z,55.75
2022-10-24T20:05:11.004Z,50.65
2022-10-24T20:07:39.711Z,34.47
2022-10-24T20:10:10.744Z,28.80
2022-10-24T20:12:39.598Z,23.83
2022-10-24T20:15:09.950Z,19.83
2022-10-24T20:17:38.637Z,15.75
2022-10-24T20:20:09.587Z,16.73
2022-10-24T20:22:38.198Z,13.63
2022-10-24T20:25:07.926Z,15.02
2022-10-24T20:27:40.811Z,15.82
2022-10-24T20:30:10.991Z,14.90
2022-10-24T20:32:39.623Z,20.00
2022-10-24T20:35:09.164Z,20.73
2022-10-24T20:37:38.105Z,19.45
2022-10-24T20:40:07.842Z,303.00
2022-10-24T20:42:37.820Z,271.27
2022-10-24T20:45:07.533Z,218.63
2022-10-24T20:47:36.830Z,280.90
2022-10-24T20:50:06.149Z,280.60
2022-10-24T20:52:34.938Z,185.10
2022-10-24T20:55:07.725Z,148.68
2022-10-24T20:57:45.456Z,162.88
2022-10-24T21:00:15.830Z,251.10
2022-10-24T21:02:47.538Z,394.48
2022-10-24T21:05:16.829Z,236.00
2022-10-24T21:07:50.146Z,305.98
2022-10-24T21:10:19.924Z,376.08
2022-10-24T21:12:50.531Z,354.30
2022-10-24T21:15:19.387Z,262.15
2022-10-24T21:17:48.156Z,199.93
2022-10-24T21:20:16.949Z,190.75
2022-10-24T21:22:45.534Z,220.70
2022-10-24T21:25:14.156Z,110.77
2022-10-24T21:27:42.796Z,82.72
2022-10-24T21:30:14.936Z,101.40
2022-10-24T21:32:43.851Z,123.07
2022-10-24T21:35:12.401Z,100.85
2022-10-24T21:37:40.962Z,89.17
2022-10-24T21:40:10.305Z,76.15
2022-10-24T21:42:38.914Z,63.50
2022-10-24T21:45:08.196Z,43.40
2022-10-24T21:50:37.308Z,42.95
2022-10-24T21:53:05.986Z,22.13
2022-10-24T21:55:34.522Z,14.23
2022-10-24T21:58:03.222Z,9.17
2022-10-24T22:00:35.656Z,8.77
2022-10-24T22:03:08.220Z,8.70
2022-10-24T22:05:36.848Z,9.00
2022-10-24T22:08:05.599Z,8.23
2022-10-24T22:10:34.182Z,8.13
2022-10-24T22:13:02.845Z,8.05
2022-10-24T22:15:31.474Z,7.73
2022-10-24T22:18:00.149Z,7.80
2022-10-24T22:20:30.115Z,7.73
2022-10-24T22:22:58.816Z,7.22
2022-10-24T22:25:27.447Z,7.78
2022-10-24T22:27:56.091Z,8.00
2022-10-24T22:30:24.813Z,7.30
2022-10-24T22:32:53.778Z,8.00
2022-10-24T22:35:23.183Z,7.20
2022-10-24T22:37:53.777Z,7.68
2022-10-24T22:40:26.943Z,8.18
2022-10-24T22:42:56.201Z,7.53
2022-10-24T22:45:29.819Z,8.90
2022-10-24T22:48:17.653Z,7.88
2022-10-24T22:50:53.939Z,7.28
2022-10-24T22:53:26.364Z,6.90
2022-10-24T22:56:13.161Z,6.60
2022-10-24T22:58:43.653Z,7.15
2022-10-24T23:01:21.718Z,7.25
2022-10-24T23:04:03.496Z,7.40
2022-10-24T23:06:41.361Z,7.65
2022-10-24T23:09:12.673Z,7.22
2022-10-24T23:11:41.654Z,6.95
2022-10-24T23:14:12.349Z,7.57
2022-10-24T23:16:46.274Z,7.43
2022-10-24T23:19:20.969Z,7.22
2022-10-24T23:21:54.444Z,6.72
2022-10-24T23:24:25.612Z,7.50
2022-10-24T23:27:14.986Z,7.18
2022-10-24T23:32:20.847Z,7.22
2022-10-24T23:35:44.756Z,7.13
2022-10-24T23:38:33.476Z,6.60
2022-10-24T23:41:04.315Z,6.95
2022-10-24T23:43:33.555Z,7.70
2022-10-24T23:46:06.728Z,7.07
2022-10-24T23:48:49.908Z,6.15
2022-10-24T23:51:24.945Z,6.70
2022-10-24T23:53:55.135Z,7.10
2022-10-24T23:56:27.161Z,7.15
2022-10-24T23:58:56.823Z,7.90
